sensor_id;sensor_type;location;lat;lon;timestamp;P1;durP1;ratioP1;P2;durP2;ratioP2
25657;SDS011;13517;59.320;18.042;2023-09-19T00:00:20;20.10;;;9.07;;
25657;SDS011;13517;59.320;18.042;2023-09-19T00:02:53;16.95;;;9.07;;
25657;SDS011;13517;59.320;18.042;2023-09-19T00:05:19;26.85;;;8.45;;
25657;SDS011;13517;59.320;18.042;2023-09-19T00:07:49;20.73;;;10.18;;
25657;SDS011;13517;59.320;18.042;2023-09-19T00:10:16;20.92;;;9.63;;
25657;SDS011;13517;59.320;18.042;2023-09-19T00:12:45;19.77;;;9.70;;
25657;SDS011;13517;59.320;18.042;2023-09-19T00:15:10;18.52;;;9.38;;
25657;SDS011;13517;59.320;18.042;2023-09-19T00:17:36;19.50;;;10.50;;
25657;SDS011;13517;59.320;18.042;2023-09-19T00:20:02;22.45;;;11.07;;
25657;SDS011;13517;59.320;18.042;2023-09-19T00:22:32;18.30;;;9.90;;
25657;SDS011;13517;59.320;18.042;2023-09-19T00:24:57;22.20;;;9.57;;
25657;SDS011;13517;59.320;18.042;2023-09-19T00:27:22;15.85;;;10.43;;
25657;SDS011;13517;59.320;18.042;2023-09-19T00:29:48;30.75;;;11.27;;
25657;SDS011;13517;59.320;18.042;2023-09-19T00:32:13;34.45;;;12.02;;
25657;SDS011;13517;59.320;18.042;2023-09-19T00:34:38;16.92;;;11.45;;
25657;SDS011;13517;59.320;18.042;2023-09-19T00:37:04;21.38;;;11.27;;
25657;SDS011;13517;59.320;18.042;2023-09-19T00:39:29;18.60;;;11.70;;
25657;SDS011;13517;59.320;18.042;2023-09-19T00:41:56;19.58;;;12.55;;
25657;SDS011;13517;59.320;18.042;2023-09-19T00:44:22;20.67;;;12.23;;
25657;SDS011;13517;59.320;18.042;2023-09-19T00:46:48;22.08;;;12.85;;
25657;SDS011;13517;59.320;18.042;2023-09-19T00:49:15;21.40;;;12.98;;
25657;SDS011;13517;59.320;18.042;2023-09-19T00:51:41;25.20;;;14.15;;
25657;SDS011;13517;59.320;18.042;2023-09-19T00:54:06;29.40;;;13.93;;
25657;SDS011;13517;59.320;18.042;2023-09-19T00:56:32;23.63;;;13.65;;
25657;SDS011;13517;59.320;18.042;2023-09-19T00:58:58;22.45;;;13.32;;
25657;SDS011;13517;59.320;18.042;2023-09-19T01:01:24;28.20;;;14.23;;
25657;SDS011;13517;59.320;18.042;2023-09-19T01:03:50;27.52;;;14.00;;
25657;SDS011;13517;59.320;18.042;2023-09-19T01:06:15;26.70;;;14.02;;
25657;SDS011;13517;59.320;18.042;2023-09-19T01:08:42;23.75;;;14.15;;
25657;SDS011;13517;59.320;18.042;2023-09-19T01:11:21;24.58;;;13.75;;
25657;SDS011;13517;59.320;18.042;2023-09-19T01:13:58;25.30;;;13.68;;
25657;SDS011;13517;59.320;18.042;2023-09-19T01:16:35;23.20;;;13.07;;
25657;SDS011;13517;59.320;18.042;2023-09-19T01:21:55;22.45;;;13.02;;
25657;SDS011;13517;59.320;18.042;2023-09-19T01:24:34;28.00;;;14.52;;
25657;SDS011;13517;59.320;18.042;2023-09-19T01:27:43;24.38;;;13.27;;
25657;SDS011;13517;59.320;18.042;2023-09-19T01:30:35;31.45;;;13.93;;
25657;SDS011;13517;59.320;18.042;2023-09-19T01:33:08;25.55;;;13.73;;
25657;SDS011;13517;59.320;18.042;2023-09-19T01:35:37;33.17;;;14.90;;
25657;SDS011;13517;59.320;18.042;2023-09-19T01:38:04;33.00;;;14.07;;
25657;SDS011;13517;59.320;18.042;2023-09-19T01:40:39;25.42;;;14.43;;
25657;SDS011;13517;59.320;18.042;2023-09-19T01:48:46;25.67;;;14.45;;
25657;SDS011;13517;59.320;18.042;2023-09-19T01:51:32;26.90;;;14.68;;
25657;SDS011;13517;59.320;18.042;2023-09-19T01:54:30;28.40;;;14.93;;
25657;SDS011;13517;59.320;18.042;2023-09-19T01:57:03;31.13;;;15.18;;
25657;SDS011;13517;59.320;18.042;2023-09-19T01:59:40;28.08;;;14.18;;
25657;SDS011;13517;59.320;18.042;2023-09-19T02:02:10;29.13;;;14.60;;
25657;SDS011;13517;59.320;18.042;2023-09-19T02:04:36;33.83;;;15.60;;
25657;SDS011;13517;59.320;18.042;2023-09-19T02:07:01;25.08;;;15.82;;
25657;SDS011;13517;59.320;18.042;2023-09-19T02:09:27;21.52;;;14.40;;
25657;SDS011;13517;59.320;18.042;2023-09-19T02:11:53;34.20;;;16.70;;
25657;SDS011;13517;59.320;18.042;2023-09-19T02:14:20;34.58;;;16.33;;
25657;SDS011;13517;59.320;18.042;2023-09-19T02:16:47;25.75;;;15.00;;
25657;SDS011;13517;59.320;18.042;2023-09-19T02:19:15;28.88;;;15.65;;
25657;SDS011;13517;59.320;18.042;2023-09-19T02:21:40;30.20;;;16.40;;
25657;SDS011;13517;59.320;18.042;2023-09-19T02:24:06;36.00;;;17.77;;
25657;SDS011;13517;59.320;18.042;2023-09-19T02:26:33;31.05;;;17.70;;
25657;SDS011;13517;59.320;18.042;2023-09-19T02:29:01;27.00;;;17.10;;
25657;SDS011;13517;59.320;18.042;2023-09-19T02:31:29;29.45;;;17.60;;
25657;SDS011;13517;59.320;18.042;2023-09-19T02:33:55;32.60;;;18.38;;
25657;SDS011;13517;59.320;18.042;2023-09-19T02:36:21;33.92;;;17.70;;
25657;SDS011;13517;59.320;18.042;2023-09-19T02:38:48;29.48;;;17.98;;
25657;SDS011;13517;59.320;18.042;2023-09-19T02:41:14;33.53;;;18.95;;
25657;SDS011;13517;59.320;18.042;2023-09-19T02:43:39;39.38;;;19.88;;
25657;SDS011;13517;59.320;18.042;2023-09-19T02:46:05;36.65;;;19.02;;
25657;SDS011;13517;59.320;18.042;2023-09-19T02:48:30;44.15;;;20.17;;
25657;SDS011;13517;59.320;18.042;2023-09-19T02:50:57;35.97;;;19.48;;
25657;SDS011;13517;59.320;18.042;2023-09-19T02:53:22;35.40;;;20.20;;
25657;SDS011;13517;59.320;18.042;2023-09-19T02:55:49;37.00;;;21.05;;
25657;SDS011;13517;59.320;18.042;2023-09-19T02:58:14;45.35;;;22.17;;
25657;SDS011;13517;59.320;18.042;2023-09-19T03:00:40;33.38;;;20.65;;
25657;SDS011;13517;59.320;18.042;2023-09-19T03:03:12;32.10;;;21.40;;
25657;SDS011;13517;59.320;18.042;2023-09-19T03:05:38;38.38;;;21.45;;
25657;SDS011;13517;59.320;18.042;2023-09-19T03:08:03;34.42;;;21.13;;
25657;SDS011;13517;59.320;18.042;2023-09-19T03:10:29;41.13;;;22.70;;
25657;SDS011;13517;59.320;18.042;2023-09-19T03:12:56;43.97;;;21.58;;
25657;SDS011;13517;59.320;18.042;2023-09-19T03:15:22;35.60;;;21.75;;
25657;SDS011;13517;59.320;18.042;2023-09-19T03:17:48;38.38;;;22.23;;
25657;SDS011;13517;59.320;18.042;2023-09-19T03:20:14;39.08;;;23.58;;
25657;SDS011;13517;59.320;18.042;2023-09-19T03:22:44;46.50;;;24.65;;
25657;SDS011;13517;59.320;18.042;2023-09-19T03:25:10;42.75;;;23.20;;
25657;SDS011;13517;59.320;18.042;2023-09-19T03:27:37;45.33;;;24.52;;
25657;SDS011;13517;59.320;18.042;2023-09-19T03:30:03;44.03;;;25.05;;
25657;SDS011;13517;59.320;18.042;2023-09-19T03:32:37;44.88;;;25.90;;
25657;SDS011;13517;59.320;18.042;2023-09-19T03:35:08;50.35;;;26.88;;
25657;SDS011;13517;59.320;18.042;2023-09-19T03:37:39;48.75;;;26.23;;
25657;SDS011;13517;59.320;18.042;2023-09-19T03:40:08;46.42;;;26.60;;
25657;SDS011;13517;59.320;18.042;2023-09-19T03:42:38;53.53;;;29.17;;
25657;SDS011;13517;59.320;18.042;2023-09-19T03:45:07;48.28;;;27.73;;
25657;SDS011;13517;59.320;18.042;2023-09-19T03:47:37;50.88;;;28.70;;
25657;SDS011;13517;59.320;18.042;2023-09-19T03:50:04;55.75;;;27.45;;
25657;SDS011;13517;59.320;18.042;2023-09-19T03:52:30;54.80;;;29.10;;
25657;SDS011;13517;59.320;18.042;2023-09-19T03:54:55;49.97;;;30.67;;
25657;SDS011;13517;59.320;18.042;2023-09-19T03:57:21;57.53;;;30.08;;
25657;SDS011;13517;59.320;18.042;2023-09-19T03:59:46;60.22;;;29.83;;
25657;SDS011;13517;59.320;18.042;2023-09-19T04:02:12;61.63;;;30.50;;
25657;SDS011;13517;59.320;18.042;2023-09-19T04:04:47;53.65;;;28.98;;
25657;SDS011;13517;59.320;18.042;2023-09-19T04:07:16;56.20;;;29.88;;
25657;SDS011;13517;59.320;18.042;2023-09-19T04:09:42;52.17;;;30.48;;
25657;SDS011;13517;59.320;18.042;2023-09-19T04:12:07;54.92;;;31.13;;
25657;SDS011;13517;59.320;18.042;2023-09-19T04:14:36;57.10;;;29.90;;
25657;SDS011;13517;59.320;18.042;2023-09-19T04:17:02;58.53;;;30.60;;
25657;SDS011;13517;59.320;18.042;2023-09-19T04:19:28;55.50;;;30.02;;
25657;SDS011;13517;59.320;18.042;2023-09-19T04:21:53;56.63;;;29.65;;
25657;SDS011;13517;59.320;18.042;2023-09-19T04:24:19;52.53;;;30.73;;
25657;SDS011;13517;59.320;18.042;2023-09-19T04:26:44;59.15;;;31.85;;
25657;SDS011;13517;59.320;18.042;2023-09-19T04:29:10;65.65;;;31.80;;
25657;SDS011;13517;59.320;18.042;2023-09-19T04:31:38;61.70;;;32.45;;
25657;SDS011;13517;59.320;18.042;2023-09-19T04:34:06;73.07;;;32.72;;
25657;SDS011;13517;59.320;18.042;2023-09-19T04:36:33;73.78;;;32.33;;
25657;SDS011;13517;59.320;18.042;2023-09-19T04:39:02;60.83;;;33.13;;
25657;SDS011;13517;59.320;18.042;2023-09-19T04:41:30;58.10;;;32.00;;
25657;SDS011;13517;59.320;18.042;2023-09-19T04:43:56;58.15;;;31.38;;
25657;SDS011;13517;59.320;18.042;2023-09-19T04:46:21;68.40;;;32.88;;
25657;SDS011;13517;59.320;18.042;2023-09-19T04:48:46;56.60;;;32.42;;
25657;SDS011;13517;59.320;18.042;2023-09-19T04:51:12;62.08;;;32.58;;
25657;SDS011;13517;59.320;18.042;2023-09-19T04:53:38;57.75;;;32.47;;
25657;SDS011;13517;59.320;18.042;2023-09-19T04:56:04;58.25;;;32.90;;
25657;SDS011;13517;59.320;18.042;2023-09-19T04:58:31;57.65;;;32.92;;
25657;SDS011;13517;59.320;18.042;2023-09-19T05:00:57;62.53;;;32.20;;
25657;SDS011;13517;59.320;18.042;2023-09-19T05:03:22;65.47;;;33.00;;
25657;SDS011;13517;59.320;18.042;2023-09-19T05:05:47;65.15;;;33.38;;
25657;SDS011;13517;59.320;18.042;2023-09-19T05:08:13;62.47;;;32.85;;
25657;SDS011;13517;59.320;18.042;2023-09-19T05:10:40;64.20;;;33.53;;
25657;SDS011;13517;59.320;18.042;2023-09-19T05:13:05;58.10;;;33.35;;
25657;SDS011;13517;59.320;18.042;2023-09-19T05:15:32;65.47;;;32.83;;
25657;SDS011;13517;59.320;18.042;2023-09-19T05:17:58;57.35;;;32.05;;
25657;SDS011;13517;59.320;18.042;2023-09-19T05:20:24;61.13;;;32.50;;
25657;SDS011;13517;59.320;18.042;2023-09-19T05:23:06;46.83;;;30.70;;
25657;SDS011;13517;59.320;18.042;2023-09-19T05:25:39;58.75;;;31.58;;
25657;SDS011;13517;59.320;18.042;2023-09-19T05:28:05;60.08;;;33.47;;
25657;SDS011;13517;59.320;18.042;2023-09-19T05:30:32;57.63;;;31.73;;
25657;SDS011;13517;59.320;18.042;2023-09-19T05:32:58;57.17;;;32.13;;
25657;SDS011;13517;59.320;18.042;2023-09-19T05:35:24;58.92;;;32.30;;
25657;SDS011;13517;59.320;18.042;2023-09-19T05:37:51;59.13;;;32.50;;
25657;SDS011;13517;59.320;18.042;2023-09-19T05:40:17;53.22;;;31.42;;
25657;SDS011;13517;59.320;18.042;2023-09-19T05:42:43;55.33;;;32.90;;
25657;SDS011;13517;59.320;18.042;2023-09-19T05:45:09;53.85;;;32.80;;
25657;SDS011;13517;59.320;18.042;2023-09-19T05:47:38;49.60;;;29.65;;
25657;SDS011;13517;59.320;18.042;2023-09-19T05:50:05;49.78;;;29.98;;
25657;SDS011;13517;59.320;18.042;2023-09-19T05:52:32;45.78;;;30.00;;
25657;SDS011;13517;59.320;18.042;2023-09-19T05:54:58;48.45;;;30.15;;
25657;SDS011;13517;59.320;18.042;2023-09-19T05:57:23;46.70;;;29.25;;
25657;SDS011;13517;59.320;18.042;2023-09-19T05:59:49;50.85;;;29.85;;
25657;SDS011;13517;59.320;18.042;2023-09-19T06:02:15;46.80;;;29.23;;
25657;SDS011;13517;59.320;18.042;2023-09-19T06:04:41;47.20;;;29.58;;
25657;SDS011;13517;59.320;18.042;2023-09-19T06:07:06;44.45;;;28.55;;
25657;SDS011;13517;59.320;18.042;2023-09-19T06:09:32;46.15;;;28.98;;
25657;SDS011;13517;59.320;18.042;2023-09-19T06:11:57;45.58;;;28.95;;
25657;SDS011;13517;59.320;18.042;2023-09-19T06:14:25;42.90;;;27.58;;
25657;SDS011;13517;59.320;18.042;2023-09-19T06:16:50;46.10;;;26.88;;
25657;SDS011;13517;59.320;18.042;2023-09-19T06:19:19;41.85;;;27.83;;
25657;SDS011;13517;59.320;18.042;2023-09-19T06:21:48;44.67;;;26.63;;
25657;SDS011;13517;59.320;18.042;2023-09-19T06:24:14;46.45;;;27.17;;
25657;SDS011;13517;59.320;18.042;2023-09-19T06:26:39;38.63;;;24.50;;
25657;SDS011;13517;59.320;18.042;2023-09-19T06:29:05;45.22;;;27.65;;
25657;SDS011;13517;59.320;18.042;2023-09-19T06:31:32;43.40;;;26.67;;
25657;SDS011;13517;59.320;18.042;2023-09-19T06:33:58;39.47;;;27.58;;
25657;SDS011;13517;59.320;18.042;2023-09-19T06:36:24;41.88;;;28.40;;
25657;SDS011;13517;59.320;18.042;2023-09-19T06:38:49;43.78;;;29.40;;
25657;SDS011;13517;59.320;18.042;2023-09-19T06:41:16;44.67;;;27.73;;
25657;SDS011;13517;59.320;18.042;2023-09-19T06:43:42;44.78;;;28.90;;
25657;SDS011;13517;59.320;18.042;2023-09-19T06:46:07;44.58;;;28.42;;
25657;SDS011;13517;59.320;18.042;2023-09-19T06:48:33;38.80;;;27.63;;
25657;SDS011;13517;59.320;18.042;2023-09-19T06:50:58;49.10;;;27.95;;
25657;SDS011;13517;59.320;18.042;2023-09-19T06:53:30;44.60;;;29.13;;
25657;SDS011;13517;59.320;18.042;2023-09-19T06:55:59;50.13;;;30.10;;
25657;SDS011;13517;59.320;18.042;2023-09-19T06:58:25;45.92;;;28.17;;
25657;SDS011;13517;59.320;18.042;2023-09-19T07:00:51;45.22;;;28.15;;
25657;SDS011;13517;59.320;18.042;2023-09-19T07:03:16;40.78;;;28.35;;
25657;SDS011;13517;59.320;18.042;2023-09-19T07:05:45;47.72;;;29.45;;
25657;SDS011;13517;59.320;18.042;2023-09-19T07:08:13;45.65;;;30.58;;
25657;SDS011;13517;59.320;18.042;2023-09-19T07:10:39;47.63;;;30.10;;
25657;SDS011;13517;59.320;18.042;2023-09-19T07:13:14;50.58;;;30.08;;
25657;SDS011;13517;59.320;18.042;2023-09-19T07:15:42;42.90;;;28.80;;
25657;SDS011;13517;59.320;18.042;2023-09-19T07:18:12;39.35;;;27.35;;
25657;SDS011;13517;59.320;18.042;2023-09-19T07:20:39;37.45;;;25.38;;
25657;SDS011;13517;59.320;18.042;2023-09-19T07:23:14;31.67;;;24.52;;
25657;SDS011;13517;59.320;18.042;2023-09-19T07:25:44;29.08;;;23.58;;
25657;SDS011;13517;59.320;18.042;2023-09-19T07:28:09;30.15;;;23.20;;
25657;SDS011;13517;59.320;18.042;2023-09-19T07:30:38;31.05;;;23.38;;
25657;SDS011;13517;59.320;18.042;2023-09-19T07:33:04;28.02;;;22.55;;
25657;SDS011;13517;59.320;18.042;2023-09-19T07:35:30;33.55;;;23.05;;
25657;SDS011;13517;59.320;18.042;2023-09-19T07:37:56;32.60;;;23.55;;
25657;SDS011;13517;59.320;18.042;2023-09-19T07:40:23;34.17;;;24.08;;
25657;SDS011;13517;59.320;18.042;2023-09-19T07:42:51;35.40;;;25.00;;
25657;SDS011;13517;59.320;18.042;2023-09-19T07:45:17;33.00;;;24.45;;
25657;SDS011;13517;59.320;18.042;2023-09-19T07:47:46;35.03;;;24.55;;
25657;SDS011;13517;59.320;18.042;2023-09-19T07:50:16;32.97;;;23.63;;
25657;SDS011;13517;59.320;18.042;2023-09-19T07:52:44;40.55;;;25.25;;
25657;SDS011;13517;59.320;18.042;2023-09-19T07:55:09;35.05;;;26.45;;
25657;SDS011;13517;59.320;18.042;2023-09-19T07:57:36;37.85;;;25.65;;
25657;SDS011;13517;59.320;18.042;2023-09-19T08:00:02;35.13;;;26.45;;
25657;SDS011;13517;59.320;18.042;2023-09-19T08:02:30;41.13;;;26.63;;
25657;SDS011;13517;59.320;18.042;2023-09-19T08:04:59;47.70;;;26.17;;
25657;SDS011;13517;59.320;18.042;2023-09-19T08:07:26;38.83;;;25.75;;
25657;SDS011;13517;59.320;18.042;2023-09-19T08:09:51;36.72;;;26.85;;
25657;SDS011;13517;59.320;18.042;2023-09-19T08:12:17;39.05;;;25.08;;
25657;SDS011;13517;59.320;18.042;2023-09-19T08:14:42;33.97;;;24.10;;
25657;SDS011;13517;59.320;18.042;2023-09-19T08:17:08;34.30;;;23.05;;
25657;SDS011;13517;59.320;18.042;2023-09-19T08:19:34;39.35;;;25.60;;
25657;SDS011;13517;59.320;18.042;2023-09-19T08:21:59;41.33;;;23.70;;
25657;SDS011;13517;59.320;18.042;2023-09-19T08:24:26;38.85;;;24.55;;
25657;SDS011;13517;59.320;18.042;2023-09-19T08:26:54;37.90;;;22.75;;
25657;SDS011;13517;59.320;18.042;2023-09-19T08:29:23;34.28;;;22.70;;
25657;SDS011;13517;59.320;18.042;2023-09-19T08:31:55;29.45;;;21.08;;
25657;SDS011;13517;59.320;18.042;2023-09-19T08:34:22;34.70;;;22.38;;
25657;SDS011;13517;59.320;18.042;2023-09-19T08:36:52;30.58;;;20.65;;
25657;SDS011;13517;59.320;18.042;2023-09-19T08:39:21;33.22;;;21.70;;
25657;SDS011;13517;59.320;18.042;2023-09-19T08:41:47;32.13;;;20.27;;
25657;SDS011;13517;59.320;18.042;2023-09-19T08:44:12;33.67;;;20.80;;
25657;SDS011;13517;59.320;18.042;2023-09-19T08:46:39;36.03;;;20.85;;
25657;SDS011;13517;59.320;18.042;2023-09-19T08:49:29;31.27;;;20.02;;
25657;SDS011;13517;59.320;18.042;2023-09-19T08:52:13;25.92;;;19.15;;
25657;SDS011;13517;59.320;18.042;2023-09-19T08:55:01;27.77;;;18.83;;
25657;SDS011;13517;59.320;18.042;2023-09-19T08:57:35;25.05;;;18.70;;
25657;SDS011;13517;59.320;18.042;2023-09-19T09:00:04;26.05;;;18.08;;
25657;SDS011;13517;59.320;18.042;2023-09-19T09:02:35;26.23;;;16.92;;
25657;SDS011;13517;59.320;18.042;2023-09-19T09:05:05;24.35;;;15.93;;
25657;SDS011;13517;59.320;18.042;2023-09-19T09:07:31;26.73;;;16.23;;
25657;SDS011;13517;59.320;18.042;2023-09-19T09:09:59;19.13;;;15.10;;
25657;SDS011;13517;59.320;18.042;2023-09-19T09:12:27;23.10;;;14.32;;
25657;SDS011;13517;59.320;18.042;2023-09-19T09:14:52;23.25;;;14.63;;
25657;SDS011;13517;59.320;18.042;2023-09-19T09:17:18;18.58;;;12.80;;
25657;SDS011;13517;59.320;18.042;2023-09-19T09:19:47;18.65;;;11.77;;
25657;SDS011;13517;59.320;18.042;2023-09-19T09:22:12;20.63;;;12.25;;
25657;SDS011;13517;59.320;18.042;2023-09-19T09:24:50;18.92;;;11.73;;
25657;SDS011;13517;59.320;18.042;2023-09-19T09:27:19;21.48;;;11.45;;
25657;SDS011;13517;59.320;18.042;2023-09-19T09:29:46;16.30;;;11.93;;
25657;SDS011;13517;59.320;18.042;2023-09-19T09:32:16;23.60;;;11.73;;
25657;SDS011;13517;59.320;18.042;2023-09-19T09:34:44;17.15;;;10.95;;
25657;SDS011;13517;59.320;18.042;2023-09-19T09:37:13;16.00;;;10.07;;
25657;SDS011;13517;59.320;18.042;2023-09-19T09:39:40;16.98;;;10.70;;
25657;SDS011;13517;59.320;18.042;2023-09-19T09:42:37;15.45;;;10.15;;
25657;SDS011;13517;59.320;18.042;2023-09-19T09:48:01;16.98;;;9.48;;
25657;SDS011;13517;59.320;18.042;2023-09-19T09:50:45;16.25;;;9.23;;
25657;SDS011;13517;59.320;18.042;2023-09-19T09:58:24;13.68;;;9.27;;
25657;SDS011;13517;59.320;18.042;2023-09-19T10:00:54;13.20;;;8.35;;
25657;SDS011;13517;59.320;18.042;2023-09-19T10:03:30;17.63;;;8.60;;
25657;SDS011;13517;59.320;18.042;2023-09-19T10:05:57;12.90;;;8.82;;
25657;SDS011;13517;59.320;18.042;2023-09-19T10:08:23;11.02;;;8.80;;
25657;SDS011;13517;59.320;18.042;2023-09-19T10:10:48;13.32;;;8.75;;
25657;SDS011;13517;59.320;18.042;2023-09-19T10:13:29;18.10;;;9.02;;
25657;SDS011;13517;59.320;18.042;2023-09-19T10:15:56;32.53;;;8.50;;
25657;SDS011;13517;59.320;18.042;2023-09-19T10:18:24;14.02;;;8.27;;
25657;SDS011;13517;59.320;18.042;2023-09-19T10:20:51;12.65;;;7.60;;
25657;SDS011;13517;59.320;18.042;2023-09-19T10:23:18;13.52;;;8.57;;
25657;SDS011;13517;59.320;18.042;2023-09-19T10:25:48;15.05;;;7.60;;
25657;SDS011;13517;59.320;18.042;2023-09-19T10:28:16;13.40;;;8.18;;
25657;SDS011;13517;59.320;18.042;2023-09-19T10:30:50;14.45;;;8.25;;
25657;SDS011;13517;59.320;18.042;2023-09-19T10:33:17;13.48;;;7.88;;
25657;SDS011;13517;59.320;18.042;2023-09-19T10:35:48;11.80;;;8.10;;
25657;SDS011;13517;59.320;18.042;2023-09-19T10:38:19;12.32;;;7.15;;
25657;SDS011;13517;59.320;18.042;2023-09-19T10:40:49;14.57;;;7.15;;
25657;SDS011;13517;59.320;18.042;2023-09-19T10:43:19;15.43;;;7.20;;
25657;SDS011;13517;59.320;18.042;2023-09-19T10:45:46;12.82;;;6.90;;
25657;SDS011;13517;59.320;18.042;2023-09-19T10:48:15;12.38;;;7.05;;
25657;SDS011;13517;59.320;18.042;2023-09-19T10:53:15;12.93;;;7.13;;
25657;SDS011;13517;59.320;18.042;2023-09-19T10:55:47;15.50;;;7.07;;
25657;SDS011;13517;59.320;18.042;2023-09-19T10:58:29;20.20;;;6.78;;
25657;SDS011;13517;59.320;18.042;2023-09-19T11:01:02;12.60;;;6.88;;
25657;SDS011;13517;59.320;18.042;2023-09-19T11:03:30;14.10;;;7.03;;
25657;SDS011;13517;59.320;18.042;2023-09-19T11:06:01;13.07;;;6.20;;
25657;SDS011;13517;59.320;18.042;2023-09-19T11:30:36;10.45;;;5.10;;
25657;SDS011;13517;59.320;18.042;2023-09-19T11:33:15;12.35;;;4.80;;
25657;SDS011;13517;59.320;18.042;2023-09-19T11:36:09;7.72;;;4.03;;
25657;SDS011;13517;59.320;18.042;2023-09-19T11:43:47;5.55;;;2.53;;
25657;SDS011;13517;59.320;18.042;2023-09-19T11:46:12;5.70;;;2.38;;
25657;SDS011;13517;59.320;18.042;2023-09-19T11:48:41;6.57;;;2.70;;
25657;SDS011;13517;59.320;18.042;2023-09-19T11:51:19;4.95;;;1.75;;
25657;SDS011;13517;59.320;18.042;2023-09-19T11:53:52;5.68;;;1.95;;
25657;SDS011;13517;59.320;18.042;2023-09-19T11:56:19;3.42;;;2.10;;
25657;SDS011;13517;59.320;18.042;2023-09-19T11:58:51;6.03;;;1.95;;
25657;SDS011;13517;59.320;18.042;2023-09-19T12:01:22;5.45;;;1.70;;
25657;SDS011;13517;59.320;18.042;2023-09-19T12:03:53;9.85;;;1.92;;
25657;SDS011;13517;59.320;18.042;2023-09-19T12:06:22;4.13;;;1.60;;
25657;SDS011;13517;59.320;18.042;2023-09-19T12:08:48;4.30;;;1.80;;
25657;SDS011;13517;59.320;18.042;2023-09-19T12:11:15;6.05;;;1.90;;
25657;SDS011;13517;59.320;18.042;2023-09-19T12:13:42;3.53;;;1.65;;
25657;SDS011;13517;59.320;18.042;2023-09-19T12:16:16;4.15;;;1.80;;
25657;SDS011;13517;59.320;18.042;2023-09-19T12:18:49;3.42;;;1.88;;
25657;SDS011;13517;59.320;18.042;2023-09-19T12:21:30;3.42;;;1.80;;
25657;SDS011;13517;59.320;18.042;2023-09-19T12:26:38;5.07;;;2.08;;
25657;SDS011;13517;59.320;18.042;2023-09-19T12:29:10;4.90;;;2.10;;
25657;SDS011;13517;59.320;18.042;2023-09-19T12:31:46;3.22;;;1.77;;
25657;SDS011;13517;59.320;18.042;2023-09-19T12:34:19;3.92;;;1.98;;
25657;SDS011;13517;59.320;18.042;2023-09-19T12:36:47;5.32;;;1.83;;
25657;SDS011;13517;59.320;18.042;2023-09-19T12:39:23;7.82;;;2.13;;
25657;SDS011;13517;59.320;18.042;2023-09-19T12:41:52;4.28;;;1.80;;
25657;SDS011;13517;59.320;18.042;2023-09-19T12:44:18;5.40;;;1.80;;
25657;SDS011;13517;59.320;18.042;2023-09-19T12:46:44;6.43;;;2.15;;
25657;SDS011;13517;59.320;18.042;2023-09-19T12:49:16;6.60;;;2.22;;
25657;SDS011;13517;59.320;18.042;2023-09-19T12:51:48;6.03;;;2.70;;
25657;SDS011;13517;59.320;18.042;2023-09-19T12:54:14;5.55;;;2.10;;
25657;SDS011;13517;59.320;18.042;2023-09-19T12:56:41;3.70;;;1.90;;
25657;SDS011;13517;59.320;18.042;2023-09-19T12:59:12;8.27;;;2.00;;
25657;SDS011;13517;59.320;18.042;2023-09-19T13:01:39;5.30;;;1.92;;
25657;SDS011;13517;59.320;18.042;2023-09-19T13:04:21;13.38;;;2.72;;
25657;SDS011;13517;59.320;18.042;2023-09-19T13:06:55;9.60;;;2.20;;
25657;SDS011;13517;59.320;18.042;2023-09-19T13:09:25;4.05;;;1.85;;
25657;SDS011;13517;59.320;18.042;2023-09-19T13:11:59;4.38;;;1.70;;
25657;SDS011;13517;59.320;18.042;2023-09-19T13:14:27;5.72;;;2.53;;
25657;SDS011;13517;59.320;18.042;2023-09-19T13:17:03;5.78;;;2.17;;
25657;SDS011;13517;59.320;18.042;2023-09-19T13:19:41;8.73;;;2.22;;
25657;SDS011;13517;59.320;18.042;2023-09-19T13:25:21;10.45;;;2.50;;
25657;SDS011;13517;59.320;18.042;2023-09-19T13:27:53;7.80;;;2.00;;
25657;SDS011;13517;59.320;18.042;2023-09-19T13:30:24;8.10;;;1.98;;
25657;SDS011;13517;59.320;18.042;2023-09-19T13:33:09;9.63;;;2.17;;
25657;SDS011;13517;59.320;18.042;2023-09-19T13:35:36;5.50;;;2.30;;
25657;SDS011;13517;59.320;18.042;2023-09-19T13:38:03;16.15;;;2.50;;
25657;SDS011;13517;59.320;18.042;2023-09-19T13:40:29;7.57;;;2.83;;
25657;SDS011;13517;59.320;18.042;2023-09-19T13:43:00;9.25;;;2.53;;
25657;SDS011;13517;59.320;18.042;2023-09-19T13:45:25;8.70;;;2.60;;
25657;SDS011;13517;59.320;18.042;2023-09-19T13:47:55;8.43;;;2.30;;
25657;SDS011;13517;59.320;18.042;2023-09-19T13:50:22;5.70;;;2.38;;
25657;SDS011;13517;59.320;18.042;2023-09-19T13:52:51;8.68;;;2.65;;
25657;SDS011;13517;59.320;18.042;2023-09-19T13:55:18;7.40;;;2.33;;
25657;SDS011;13517;59.320;18.042;2023-09-19T13:57:46;8.45;;;2.72;;
25657;SDS011;13517;59.320;18.042;2023-09-19T14:00:12;12.23;;;2.67;;
25657;SDS011;13517;59.320;18.042;2023-09-19T14:02:41;8.23;;;2.85;;
25657;SDS011;13517;59.320;18.042;2023-09-19T14:05:09;4.35;;;2.20;;
25657;SDS011;13517;59.320;18.042;2023-09-19T14:07:37;7.53;;;2.58;;
25657;SDS011;13517;59.320;18.042;2023-09-19T14:10:03;5.07;;;2.13;;
25657;SDS011;13517;59.320;18.042;2023-09-19T14:12:29;7.18;;;2.20;;
25657;SDS011;13517;59.320;18.042;2023-09-19T14:14:55;6.07;;;2.53;;
25657;SDS011;13517;59.320;18.042;2023-09-19T14:17:21;6.63;;;2.30;;
25657;SDS011;13517;59.320;18.042;2023-09-19T14:19:46;7.55;;;1.85;;
25657;SDS011;13517;59.320;18.042;2023-09-19T14:22:12;5.63;;;1.73;;
25657;SDS011;13517;59.320;18.042;2023-09-19T14:24:39;5.82;;;2.15;;
25657;SDS011;13517;59.320;18.042;2023-09-19T14:27:06;3.92;;;1.90;;
25657;SDS011;13517;59.320;18.042;2023-09-19T14:29:34;9.20;;;1.98;;
25657;SDS011;13517;59.320;18.042;2023-09-19T14:31:59;6.97;;;1.90;;
25657;SDS011;13517;59.320;18.042;2023-09-19T14:34:25;5.88;;;1.80;;
25657;SDS011;13517;59.320;18.042;2023-09-19T14:36:51;7.63;;;1.90;;
25657;SDS011;13517;59.320;18.042;2023-09-19T14:39:16;7.28;;;1.80;;
25657;SDS011;13517;59.320;18.042;2023-09-19T14:41:41;7.25;;;2.00;;
25657;SDS011;13517;59.320;18.042;2023-09-19T14:44:07;7.03;;;1.85;;
25657;SDS011;13517;59.320;18.042;2023-09-19T14:46:32;7.55;;;1.60;;
25657;SDS011;13517;59.320;18.042;2023-09-19T14:48:58;5.53;;;1.55;;
25657;SDS011;13517;59.320;18.042;2023-09-19T14:51:28;5.15;;;1.75;;
25657;SDS011;13517;59.320;18.042;2023-09-19T14:53:54;5.10;;;1.67;;
25657;SDS011;13517;59.320;18.042;2023-09-19T14:56:20;6.32;;;1.77;;
25657;SDS011;13517;59.320;18.042;2023-09-19T14:58:46;8.45;;;2.13;;
25657;SDS011;13517;59.320;18.042;2023-09-19T15:01:12;12.15;;;1.95;;
25657;SDS011;13517;59.320;18.042;2023-09-19T15:03:41;5.32;;;2.08;;
25657;SDS011;13517;59.320;18.042;2023-09-19T15:06:10;5.38;;;1.50;;
25657;SDS011;13517;59.320;18.042;2023-09-19T15:08:42;10.85;;;1.80;;
25657;SDS011;13517;59.320;18.042;2023-09-19T15:11:18;6.60;;;1.70;;
25657;SDS011;13517;59.320;18.042;2023-09-19T15:13:45;7.30;;;1.90;;
25657;SDS011;13517;59.320;18.042;2023-09-19T15:16:11;11.35;;;2.40;;